createdAt,value
2022-10-13T00:01:57.413Z,3.03
2022-10-13T00:04:28.585Z,2.58
2022-10-13T00:06:59.536Z,2.65
2022-10-13T00:09:29.574Z,3.15
2022-10-13T00:12:00.762Z,3.38
2022-10-13T00:14:50.651Z,3.95
2022-10-13T00:17:22.449Z,3.05
2022-10-13T00:19:52.541Z,3.55
2022-10-13T00:22:22.391Z,3.78
2022-10-13T00:24:55.738Z,2.65
2022-10-13T00:27:27.398Z,3.55
2022-10-13T00:29:58.700Z,3.20
2022-10-13T00:32:29.027Z,3.53
2022-10-13T00:34:59.029Z,3.00
2022-10-13T00:37:29.512Z,3.10
2022-10-13T00:40:20.282Z,3.15
2022-10-13T00:42:53.305Z,2.85
2022-10-13T00:45:31.850Z,2.92
2022-10-13T00:48:05.009Z,3.50
2022-10-13T00:51:00.709Z,2.90
2022-10-13T00:53:35.295Z,3.33
2022-10-13T00:56:28.377Z,2.42
2022-10-13T00:58:59.307Z,2.88
2022-10-13T01:01:30.102Z,3.42
2022-10-13T01:04:00.557Z,2.88
2022-10-13T01:06:32.460Z,3.10
2022-10-13T01:09:02.583Z,2.35
2022-10-13T01:11:48.539Z,3.10
2022-10-13T01:14:47.548Z,2.97
2022-10-13T01:17:56.338Z,2.78
2022-10-13T01:20:52.459Z,2.85
2022-10-13T01:23:40.391Z,2.75
2022-10-13T01:26:31.680Z,3.10
2022-10-13T01:29:29.340Z,2.97
2022-10-13T01:32:15.022Z,2.80
2022-10-13T01:34:54.163Z,4.03
2022-10-13T01:40:13.819Z,2.88
2022-10-13T01:43:03.146Z,2.80
2022-10-13T01:46:03.259Z,2.95
2022-10-13T01:48:34.966Z,2.92
2022-10-13T01:51:08.293Z,3.95
2022-10-13T01:53:39.345Z,3.25
2022-10-13T01:56:09.913Z,3.17
2022-10-13T01:58:45.345Z,3.47
2022-10-13T02:01:28.532Z,3.47
2022-10-13T02:04:01.313Z,3.55
2022-10-13T02:06:53.327Z,3.50
2022-10-13T02:09:41.697Z,3.10
2022-10-13T02:12:23.229Z,3.28
2022-10-13T02:14:56.463Z,3.53
2022-10-13T02:17:28.524Z,2.72
2022-10-13T02:20:00.267Z,3.42
2022-10-13T02:22:35.194Z,3.78
2022-10-13T02:25:07.311Z,3.28
2022-10-13T02:27:37.522Z,3.50
2022-10-13T02:30:08.197Z,3.47
2022-10-13T02:32:38.931Z,3.10
2022-10-13T02:35:09.486Z,3.60
2022-10-13T02:37:39.337Z,3.22
2022-10-13T02:40:13.062Z,2.75
2022-10-13T02:42:43.717Z,2.88
2022-10-13T02:45:13.558Z,3.08
2022-10-13T02:47:43.431Z,2.72
2022-10-13T02:50:13.505Z,2.60
2022-10-13T02:52:43.762Z,2.15
2022-10-13T02:55:14.023Z,2.38
2022-10-13T03:00:16.820Z,2.72
2022-10-13T03:02:46.696Z,2.25
2022-10-13T03:05:17.088Z,3.10
2022-10-13T03:07:47.043Z,3.30
2022-10-13T03:10:17.594Z,3.25
2022-10-13T03:12:47.450Z,2.90
2022-10-13T03:15:17.440Z,3.20
2022-10-13T03:17:49.505Z,3.38
2022-10-13T03:20:19.598Z,3.22
2022-10-13T03:22:50.172Z,3.03
2022-10-13T03:25:20.065Z,2.92
2022-10-13T03:27:50.287Z,3.67
2022-10-13T03:30:20.358Z,2.72
2022-10-13T03:32:50.196Z,3.85
2022-10-13T03:35:20.080Z,3.30
2022-10-13T03:37:50.283Z,4.32
2022-10-13T03:40:20.179Z,3.40
2022-10-13T03:42:50.416Z,3.60
2022-10-13T03:45:20.255Z,3.42
2022-10-13T03:47:50.099Z,3.50
2022-10-13T03:50:20.516Z,3.53
2022-10-13T03:52:50.768Z,3.30
2022-10-13T03:55:21.103Z,3.67
2022-10-13T03:57:50.932Z,3.65
2022-10-13T04:00:21.153Z,3.40
2022-10-13T04:02:51.913Z,3.85
2022-10-13T04:05:22.333Z,3.80
2022-10-13T04:07:52.115Z,3.70
2022-10-13T04:10:23.852Z,3.35
2022-10-13T04:12:54.398Z,3.42
2022-10-13T04:15:24.629Z,4.13
2022-10-13T04:17:55.076Z,3.80
2022-10-13T04:20:25.325Z,3.72
2022-10-13T04:22:55.968Z,3.45
2022-10-13T04:25:26.457Z,3.30
2022-10-13T04:27:56.673Z,4.03
2022-10-13T04:30:26.508Z,3.67
2022-10-13T04:32:56.403Z,3.85
2022-10-13T04:35:26.341Z,3.50
2022-10-13T04:37:58.560Z,4.20
2022-10-13T04:40:29.482Z,3.38
2022-10-13T04:42:59.847Z,3.83
2022-10-13T04:45:30.210Z,3.63
2022-10-13T04:48:00.090Z,3.72
2022-10-13T04:50:29.872Z,3.60
2022-10-13T04:53:03.139Z,3.80
2022-10-13T04:55:33.666Z,3.65
2022-10-13T04:58:03.801Z,3.55
2022-10-13T05:00:33.622Z,3.40
2022-10-13T05:03:03.453Z,3.35
2022-10-13T05:05:36.987Z,3.47
2022-10-13T05:08:07.726Z,3.65
2022-10-13T05:10:37.868Z,2.65
2022-10-13T05:13:07.736Z,3.58
2022-10-13T05:15:40.876Z,3.63
2022-10-13T05:18:11.297Z,4.18
2022-10-13T05:20:41.620Z,3.42
2022-10-13T05:23:11.637Z,2.92
2022-10-13T05:25:41.715Z,3.53
2022-10-13T05:28:15.741Z,3.30
2022-10-13T05:30:47.010Z,3.33
2022-10-13T05:33:17.004Z,3.40
2022-10-13T05:35:46.818Z,3.45
2022-10-13T05:38:16.598Z,3.60
2022-10-13T05:40:47.320Z,3.60
2022-10-13T05:43:17.501Z,3.20
2022-10-13T05:45:47.741Z,3.05
2022-10-13T05:48:17.525Z,3.72
2022-10-13T05:50:47.342Z,3.58
2022-10-13T05:53:17.401Z,3.28
2022-10-13T05:55:47.857Z,3.65
2022-10-13T05:58:18.782Z,4.07
2022-10-13T06:00:48.772Z,3.33
2022-10-13T06:03:22.027Z,3.42
2022-10-13T06:05:52.880Z,3.47
2022-10-13T06:08:23.342Z,4.10
2022-10-13T06:10:54.230Z,3.55
2022-10-13T06:13:25.509Z,3.75
2022-10-13T06:15:56.074Z,3.15
2022-10-13T06:18:26.444Z,3.30
2022-10-13T06:20:56.344Z,3.08
2022-10-13T06:23:26.192Z,3.50
2022-10-13T06:25:56.270Z,3.25
2022-10-13T06:28:26.521Z,2.95
2022-10-13T06:30:58.084Z,3.60
2022-10-13T06:33:28.752Z,3.72
2022-10-13T06:35:58.496Z,3.60
2022-10-13T06:38:28.743Z,2.90
2022-10-13T06:41:03.037Z,3.38
2022-10-13T06:43:40.148Z,3.33
2022-10-13T06:46:13.478Z,3.42
2022-10-13T06:48:43.773Z,3.47
2022-10-13T06:51:14.415Z,3.25
2022-10-13T06:53:44.602Z,3.55
2022-10-13T06:56:14.428Z,3.55
2022-10-13T06:58:44.223Z,3.38
2022-10-13T07:01:14.995Z,3.42
2022-10-13T07:03:45.148Z,3.40
2022-10-13T07:06:15.293Z,3.05
2022-10-13T07:08:45.106Z,3.17
2022-10-13T07:11:16.972Z,4.43
2022-10-13T07:13:51.928Z,3.70
2022-10-13T07:16:22.325Z,3.53
2022-10-13T07:18:52.461Z,3.05
2022-10-13T07:21:22.852Z,3.55
2022-10-13T07:23:52.992Z,3.60
2022-10-13T07:26:23.608Z,3.58
2022-10-13T07:28:54.961Z,3.85
2022-10-13T07:31:25.315Z,3.97
2022-10-13T07:33:55.520Z,3.72
2022-10-13T07:36:30.394Z,3.60
2022-10-13T07:39:02.385Z,3.78
2022-10-13T07:41:32.865Z,3.53
2022-10-13T07:44:03.988Z,3.55
2022-10-13T07:46:34.801Z,4.40
2022-10-13T07:49:05.070Z,3.92
2022-10-13T07:51:35.924Z,3.33
2022-10-13T07:54:06.095Z,3.30
2022-10-13T07:56:37.480Z,3.58
2022-10-13T07:59:08.022Z,3.13
2022-10-13T08:01:38.840Z,3.60
2022-10-13T08:04:09.214Z,3.35
2022-10-13T08:09:14.662Z,3.92
2022-10-13T08:11:44.413Z,3.10
2022-10-13T08:14:15.073Z,3.47
2022-10-13T08:16:48.801Z,3.20
2022-10-13T08:19:23.287Z,3.70
2022-10-13T08:21:58.691Z,3.72
2022-10-13T08:24:29.672Z,3.45
2022-10-13T08:26:59.560Z,3.83
2022-10-13T08:29:29.525Z,4.07
2022-10-13T08:31:59.831Z,3.38
2022-10-13T08:34:30.531Z,4.10
2022-10-13T08:37:01.414Z,3.80
2022-10-13T08:39:32.190Z,3.80
2022-10-13T08:42:02.744Z,3.75
2022-10-13T08:47:48.509Z,3.80
2022-10-13T08:50:25.014Z,4.03
2022-10-13T08:53:07.335Z,4.05
2022-10-13T08:55:44.012Z,3.75
2022-10-13T08:58:35.564Z,4.22
2022-10-13T09:01:20.201Z,3.25
2022-10-13T09:03:57.803Z,3.97
2022-10-13T09:06:39.318Z,4.25
2022-10-13T09:09:14.031Z,3.83
2022-10-13T09:11:47.711Z,4.22
2022-10-13T09:14:31.626Z,4.25
2022-10-13T09:17:17.596Z,4.40
2022-10-13T09:20:03.104Z,3.92
2022-10-13T09:22:38.946Z,3.78
2022-10-13T09:25:12.045Z,4.03
2022-10-13T09:27:59.572Z,4.40
2022-10-13T09:30:44.263Z,4.40
2022-10-13T09:33:14.634Z,4.07
2022-10-13T09:35:50.509Z,4.88
2022-10-13T09:38:23.484Z,4.57
2022-10-13T09:41:07.006Z,5.10
2022-10-13T09:43:50.146Z,4.63
2022-10-13T09:46:37.820Z,5.05
2022-10-13T09:52:14.747Z,4.00
2022-10-13T09:54:48.026Z,4.18
2022-10-13T09:57:47.672Z,4.65
2022-10-13T10:00:26.264Z,3.80
2022-10-13T10:02:59.442Z,4.38
2022-10-13T10:05:51.878Z,3.63
2022-10-13T10:09:03.282Z,4.50
2022-10-13T10:11:46.846Z,4.60
2022-10-13T10:14:38.257Z,4.40
2022-10-13T10:17:11.554Z,4.60
2022-10-13T10:20:01.147Z,5.38
2022-10-13T10:22:49.962Z,4.45
2022-10-13T10:25:41.168Z,4.53
2022-10-13T10:28:36.024Z,4.72
2022-10-13T10:31:09.103Z,4.18
2022-10-13T10:34:18.228Z,4.68
2022-10-13T10:37:12.249Z,4.35
2022-10-13T10:40:01.715Z,4.88
2022-10-13T10:42:42.990Z,4.50
2022-10-13T10:45:23.334Z,4.35
2022-10-13T10:48:08.510Z,4.57
2022-10-13T10:50:38.917Z,3.55
2022-10-13T10:53:15.597Z,5.13
2022-10-13T10:56:07.460Z,4.35
2022-10-13T10:59:30.856Z,4.82
2022-10-13T11:02:36.054Z,4.88
2022-10-13T11:05:08.863Z,4.63
2022-10-13T11:07:42.101Z,3.92
2022-10-13T11:10:22.116Z,4.88
2022-10-13T11:12:55.681Z,4.45
2022-10-13T11:15:34.867Z,4.68
2022-10-13T11:18:44.858Z,4.63
2022-10-13T11:21:14.877Z,4.95
2022-10-13T11:23:49.269Z,6.28
2022-10-13T11:26:29.621Z,6.20
2022-10-13T11:29:01.238Z,5.97
2022-10-13T11:31:48.388Z,6.72
2022-10-13T11:34:32.799Z,5.90
2022-10-13T11:37:04.338Z,8.00
2022-10-13T11:40:00.655Z,7.85
2022-10-13T11:42:41.086Z,6.38
2022-10-13T11:45:57.288Z,5.72
2022-10-13T11:48:46.460Z,6.68
2022-10-13T11:51:36.207Z,5.97
2022-10-13T11:54:37.072Z,4.68
2022-10-13T11:57:28.596Z,4.97
2022-10-13T11:59:59.404Z,4.32
2022-10-13T12:02:32.416Z,3.80
2022-10-13T12:05:25.305Z,3.38
2022-10-13T12:07:58.927Z,3.47
2022-10-13T12:10:35.648Z,4.32
2022-10-13T12:13:10.644Z,4.40
2022-10-13T12:18:26.456Z,3.97
2022-10-13T12:21:02.071Z,3.83
2022-10-13T12:23:34.479Z,3.40
2022-10-13T12:28:52.483Z,1.70
2022-10-13T12:31:27.268Z,1.30
2022-10-13T12:34:00.448Z,1.85
2022-10-13T12:36:33.325Z,1.80
2022-10-13T12:39:12.107Z,1.67
2022-10-13T12:41:48.980Z,1.70
2022-10-13T12:44:28.643Z,1.48
2022-10-13T12:47:04.888Z,1.02
2022-10-13T12:49:37.181Z,1.50
2022-10-13T12:52:15.401Z,1.08
2022-10-13T12:54:57.272Z,1.52
2022-10-13T12:57:39.297Z,1.40
2022-10-13T13:00:21.420Z,1.50
2022-10-13T13:03:06.283Z,2.40
2022-10-13T13:05:42.432Z,1.73
2022-10-13T13:08:33.024Z,1.35
2022-10-13T13:11:10.242Z,1.40
2022-10-13T13:13:41.030Z,1.50
2022-10-13T13:16:20.759Z,1.30
2022-10-13T13:18:52.449Z,1.65
2022-10-13T13:21:23.315Z,1.52
2022-10-13T13:23:54.268Z,2.08
2022-10-13T13:26:25.694Z,1.75
2022-10-13T13:28:57.607Z,1.48
2022-10-13T13:31:28.293Z,1.85
2022-10-13T13:33:58.920Z,1.55
2022-10-13T13:36:31.754Z,1.70
2022-10-13T13:39:02.130Z,1.50
2022-10-13T13:41:32.532Z,1.60
2022-10-13T13:44:02.724Z,1.65
2022-10-13T13:46:33.435Z,1.60
2022-10-13T13:49:03.998Z,1.95
2022-10-13T13:51:34.362Z,1.02
2022-10-13T13:54:04.542Z,1.35
2022-10-13T13:56:34.776Z,1.83
2022-10-13T13:59:04.637Z,1.45
2022-10-13T14:01:34.488Z,1.30
2022-10-13T14:04:04.274Z,1.65
2022-10-13T14:06:34.430Z,0.90
2022-10-13T14:09:06.199Z,1.27
2022-10-13T14:11:36.887Z,1.30
2022-10-13T14:14:08.173Z,0.80
2022-10-13T14:16:38.325Z,1.60
2022-10-13T14:19:09.618Z,1.27
2022-10-13T14:21:39.860Z,1.27
2022-10-13T14:24:13.682Z,1.40
2022-10-13T14:26:44.362Z,1.00
2022-10-13T14:29:14.786Z,0.90
2022-10-13T14:31:44.672Z,1.15
2022-10-13T14:34:15.108Z,1.20
2022-10-13T14:36:50.345Z,1.80
2022-10-13T14:39:23.653Z,1.58
2022-10-13T14:41:53.683Z,1.52
2022-10-13T14:44:24.012Z,1.45
2022-10-13T14:46:54.551Z,1.35
2022-10-13T14:49:24.565Z,1.30
2022-10-13T14:51:54.394Z,1.40
2022-10-13T14:54:24.363Z,1.90
2022-10-13T14:56:54.875Z,1.60
2022-10-13T14:59:25.041Z,1.40
2022-10-13T15:01:55.250Z,1.33
2022-10-13T15:04:25.162Z,1.30
2022-10-13T15:06:55.067Z,1.20
2022-10-13T15:09:33.698Z,1.25
2022-10-13T15:12:16.764Z,0.85
2022-10-13T15:14:47.127Z,1.65
2022-10-13T15:17:16.962Z,1.45
2022-10-13T15:19:46.774Z,1.35
2022-10-13T15:22:16.636Z,1.40
2022-10-13T15:24:47.059Z,1.10
2022-10-13T15:27:17.546Z,0.80
2022-10-13T15:29:47.385Z,1.15
2022-10-13T15:32:19.757Z,1.10
2022-10-13T15:34:57.422Z,1.20
2022-10-13T15:37:28.208Z,1.10
2022-10-13T15:39:58.181Z,1.40
2022-10-13T15:42:28.083Z,1.42
2022-10-13T15:45:14.527Z,1.20
2022-10-13T15:47:45.166Z,1.30
2022-10-13T15:50:16.237Z,1.45
2022-10-13T15:52:46.787Z,1.10
2022-10-13T15:55:16.829Z,1.20
2022-10-13T15:57:47.598Z,1.20
2022-10-13T16:00:21.731Z,1.60
2022-10-13T16:02:53.739Z,1.10
2022-10-13T16:05:24.371Z,1.20
2022-10-13T16:07:54.183Z,1.67
2022-10-13T16:10:24.044Z,1.25
2022-10-13T16:12:53.921Z,1.40
2022-10-13T16:15:25.109Z,1.35
2022-10-13T16:17:55.993Z,1.30
2022-10-13T16:20:26.147Z,1.20
2022-10-13T16:22:56.133Z,1.27
2022-10-13T16:25:25.943Z,1.38
2022-10-13T16:27:56.222Z,1.20
2022-10-13T16:30:26.492Z,1.40
2022-10-13T16:32:56.346Z,1.58
2022-10-13T16:35:26.221Z,1.48
2022-10-13T16:37:56.065Z,1.20
2022-10-13T16:40:25.887Z,0.77
2022-10-13T16:42:56.151Z,1.25
2022-10-13T16:45:41.353Z,1.00
2022-10-13T16:48:16.428Z,1.30
2022-10-13T16:50:46.450Z,1.30
2022-10-13T16:53:16.656Z,1.38
2022-10-13T16:55:46.909Z,0.75
2022-10-13T16:58:17.533Z,1.48
2022-10-13T17:00:47.421Z,1.33
2022-10-13T17:03:17.247Z,1.20
2022-10-13T17:05:55.102Z,1.13
2022-10-13T17:08:25.503Z,1.27
2022-10-13T17:10:58.282Z,1.75
2022-10-13T17:13:28.784Z,1.02
2022-10-13T17:15:59.644Z,1.10
2022-10-13T17:18:30.250Z,1.25
2022-10-13T17:21:06.799Z,1.27
2022-10-13T17:23:37.371Z,1.23
2022-10-13T17:26:17.665Z,1.10
2022-10-13T17:28:48.267Z,1.00
2022-10-13T17:31:22.186Z,1.20
2022-10-13T17:33:53.366Z,1.27
2022-10-13T17:36:28.361Z,1.20
2022-10-13T17:39:03.642Z,1.05
2022-10-13T17:41:34.169Z,1.10
2022-10-13T17:44:04.626Z,0.85
2022-10-13T17:46:37.806Z,1.30
2022-10-13T17:49:12.167Z,0.95
2022-10-13T17:51:46.921Z,1.20
2022-10-13T17:54:17.020Z,1.00
2022-10-13T17:56:50.721Z,1.08
2022-10-13T17:59:21.420Z,1.15
2022-10-13T18:01:52.041Z,1.15
2022-10-13T18:04:23.375Z,0.70
2022-10-13T18:06:54.386Z,1.05
2022-10-13T18:09:27.933Z,0.90
2022-10-13T18:11:58.327Z,0.90
2022-10-13T18:14:28.292Z,1.38
2022-10-13T18:16:58.140Z,1.20
2022-10-13T18:19:27.950Z,1.38
2022-10-13T18:21:58.144Z,2.13
2022-10-13T18:24:28.422Z,2.05
2022-10-13T18:26:58.205Z,1.75
2022-10-13T18:29:31.313Z,2.97
2022-10-13T18:32:02.127Z,2.05
2022-10-13T18:34:32.733Z,2.30
2022-10-13T18:37:02.608Z,2.10
2022-10-13T18:39:35.352Z,2.00
2022-10-13T18:42:06.081Z,2.40
2022-10-13T18:44:39.439Z,2.08
2022-10-13T18:47:10.752Z,2.33
2022-10-13T18:49:40.741Z,2.72
2022-10-13T18:52:11.048Z,2.40
2022-10-13T18:54:42.502Z,1.95
2022-10-13T18:57:12.531Z,2.00
2022-10-13T18:59:42.345Z,2.33
2022-10-13T19:02:15.888Z,1.98
2022-10-13T19:04:46.562Z,2.40
2022-10-13T19:07:16.691Z,4.80
2022-10-13T19:09:46.556Z,2.30
2022-10-13T19:12:16.381Z,2.40
2022-10-13T19:14:46.904Z,2.13
2022-10-13T19:17:16.868Z,2.67
2022-10-13T19:19:47.600Z,4.07
2022-10-13T19:22:18.113Z,2.20
2022-10-13T19:24:48.130Z,2.10
2022-10-13T19:27:19.159Z,2.30
2022-10-13T19:29:54.435Z,2.28
2022-10-13T19:32:25.334Z,5.05
2022-10-13T19:34:55.750Z,1.65
2022-10-13T19:37:25.641Z,1.27
2022-10-13T19:39:56.064Z,1.52
2022-10-13T19:42:26.379Z,1.48
2022-10-13T19:44:57.537Z,1.30
2022-10-13T19:47:30.967Z,1.63
2022-10-13T19:50:02.131Z,1.63
2022-10-13T19:52:32.889Z,2.13
2022-10-13T19:55:03.345Z,2.58
2022-10-13T19:57:33.158Z,1.85
2022-10-13T20:00:03.140Z,2.45
2022-10-13T20:02:41.941Z,1.80
2022-10-13T20:05:12.821Z,1.65
2022-10-13T20:07:43.019Z,2.22
2022-10-13T20:10:12.839Z,2.28
2022-10-13T20:12:42.666Z,2.20
2022-10-13T20:15:12.570Z,1.85
2022-10-13T20:17:42.885Z,3.00
2022-10-13T20:20:12.867Z,2.20
2022-10-13T20:22:43.944Z,2.20
2022-10-13T20:25:16.334Z,2.17
2022-10-13T20:27:46.948Z,1.92
2022-10-13T20:30:17.142Z,1.80
2022-10-13T20:32:47.368Z,2.83
2022-10-13T20:35:17.240Z,2.35
2022-10-13T20:37:47.079Z,2.35
2022-10-13T20:40:16.978Z,2.20
2022-10-13T20:42:52.588Z,1.95
2022-10-13T20:45:23.239Z,2.58
2022-10-13T20:47:53.090Z,2.38
2022-10-13T20:50:22.907Z,2.88
2022-10-13T20:52:52.721Z,2.65
2022-10-13T20:55:22.939Z,2.42
2022-10-13T20:57:53.978Z,2.33
2022-10-13T21:00:24.503Z,2.72
2022-10-13T21:02:56.034Z,2.70
2022-10-13T21:05:29.043Z,2.55
2022-10-13T21:07:59.117Z,2.50
2022-10-13T21:10:33.520Z,2.63
2022-10-13T21:13:03.777Z,3.22
2022-10-13T21:15:36.910Z,2.50
2022-10-13T21:18:07.886Z,3.08
2022-10-13T21:20:45.350Z,2.83
2022-10-13T21:23:15.670Z,2.80
2022-10-13T21:25:45.490Z,2.80
2022-10-13T21:28:15.329Z,1.63
2022-10-13T21:30:45.598Z,2.47
2022-10-13T21:33:15.762Z,2.40
2022-10-13T21:35:45.568Z,2.67
2022-10-13T21:38:15.360Z,2.47
2022-10-13T21:40:53.709Z,2.80
2022-10-13T21:43:24.838Z,2.80
2022-10-13T21:45:54.930Z,2.65
2022-10-13T21:48:24.788Z,2.78
2022-10-13T21:50:54.570Z,2.50
2022-10-13T21:53:24.346Z,2.97
2022-10-13T21:55:54.372Z,2.65
2022-10-13T21:58:24.157Z,2.53
2022-10-13T22:00:55.284Z,3.03
2022-10-13T22:03:25.733Z,2.90
2022-10-13T22:05:56.126Z,2.88
2022-10-13T22:08:37.939Z,2.67
2022-10-13T22:11:17.785Z,2.75
2022-10-13T22:13:48.278Z,3.95
2022-10-13T22:16:24.688Z,3.72
2022-10-13T22:18:57.070Z,3.05
2022-10-13T22:24:05.095Z,4.32
2022-10-13T22:26:37.642Z,3.08
2022-10-13T22:29:09.523Z,3.13
2022-10-13T22:31:41.657Z,3.58
2022-10-13T22:34:15.457Z,4.05
2022-10-13T22:36:45.670Z,4.00
2022-10-13T22:39:16.987Z,3.80
2022-10-13T22:41:47.392Z,4.32
2022-10-13T22:44:17.295Z,4.55
2022-10-13T22:46:47.162Z,4.07
2022-10-13T22:49:17.428Z,4.18
2022-10-13T22:51:47.247Z,4.32
2022-10-13T22:54:17.510Z,3.35
2022-10-13T22:56:47.348Z,3.90
2022-10-13T22:59:17.393Z,3.17
2022-10-13T23:01:47.216Z,3.83
2022-10-13T23:04:17.422Z,3.85
2022-10-13T23:06:47.237Z,4.10
2022-10-13T23:09:17.379Z,3.97
2022-10-13T23:11:47.243Z,3.53
2022-10-13T23:14:21.535Z,3.80
2022-10-13T23:16:51.517Z,2.65
2022-10-13T23:19:21.629Z,3.20
2022-10-13T23:21:51.538Z,3.03
2022-10-13T23:24:21.377Z,2.67
2022-10-13T23:26:51.192Z,2.30
2022-10-13T23:29:21.069Z,2.35
2022-10-13T23:31:50.860Z,2.33
2022-10-13T23:34:21.258Z,2.10
2022-10-13T23:36:51.670Z,2.70
2022-10-13T23:39:21.562Z,2.42
2022-10-13T23:41:51.394Z,2.00
2022-10-13T23:44:21.933Z,2.33
2022-10-13T23:46:53.142Z,2.65
2022-10-13T23:49:24.196Z,2.38
2022-10-13T23:51:54.439Z,2.38
2022-10-13T23:54:24.387Z,2.10
2022-10-13T23:56:54.234Z,2.17
2022-10-13T23:59:24.126Z,2.38
